Time;durP1;ratioP1;P1;durP2;ratioP2;P2;SDS_P1;SDS_P2;PMS_P1;PMS_P2;Temp;Humidity;BMP_temperature;BMP_pressure;BME280_temperature;BME280_humidity;BME280_pressure;Samples;Min_cycle;Max_cycle;Signal;HPM_P1;HPM_P2
2022/01/12 00:00:52;;;;;;;4.60;3.92;;;0.80;99.90;;;;;;5091517;28;20192;-67
2022/01/12 00:03:19;;;;;;;8.43;4.78;;;0.80;99.90;;;;;;5080190;28;20201;-68
2022/01/12 00:05:46;;;;;;;5.40;5.00;;;0.80;99.90;;;;;;5077151;28;20570;-69
2022/01/12 00:08:12;;;;;;;5.30;4.53;;;0.80;99.90;;;;;;5103102;28;20262;-67
2022/01/12 00:10:41;;;;;;;3.58;3.25;;;0.80;99.90;;;;;;5099243;28;20390;-67
2022/01/12 00:13:08;;;;;;;4.72;4.13;;;0.80;99.90;;;;;;5079717;28;20303;-68
2022/01/12 00:15:34;;;;;;;3.92;3.45;;;0.80;99.90;;;;;;5105633;28;20220;-69
2022/01/12 00:18:01;;;;;;;5.00;4.25;;;0.80;99.90;;;;;;5102529;28;20284;-67
2022/01/12 00:20:28;;;;;;;13.50;4.40;;;0.80;99.90;;;;;;5077957;28;20205;-66
2022/01/12 00:22:54;;;;;;;9.05;3.92;;;0.80;99.90;;;;;;5087901;28;20201;-67
2022/01/12 00:25:31;;;;;;;3.45;3.15;;;0.80;99.90;;;;;;5080570;28;20202;-66
2022/01/12 00:33:28;;;;;;;3.33;2.97;;;0.80;99.90;;;;;;5102763;28;20255;-68
2022/01/12 00:35:57;;;;;;;4.22;3.90;;;0.80;99.90;;;;;;5089034;28;20329;-67
2022/01/12 00:38:29;;;;;;;5.93;3.40;;;0.80;99.90;;;;;;5098989;28;20333;-66
2022/01/12 00:40:56;;;;;;;4.90;3.95;;;0.80;99.90;;;;;;5096123;28;20201;-66
2022/01/12 00:43:27;;;;;;;6.07;5.25;;;0.80;99.90;;;;;;5086207;28;20229;-67
2022/01/12 00:45:54;;;;;;;2.88;2.65;;;0.80;99.90;;;;;;5097505;28;20223;-67
2022/01/12 00:48:21;;;;;;;4.63;2.80;;;0.80;99.90;;;;;;5089036;28;20201;-66
2022/01/12 00:50:48;;;;;;;4.43;3.58;;;0.80;99.90;;;;;;5086766;28;20194;-66
2022/01/12 00:53:16;;;;;;;3.45;3.15;;;0.80;99.90;;;;;;5082550;28;20581;-67
2022/01/12 00:55:42;;;;;;;3.08;2.78;;;0.70;99.90;;;;;;5073804;28;20217;-67
2022/01/12 00:58:09;;;;;;;2.67;2.47;;;0.70;99.90;;;;;;5085078;28;20258;-67
2022/01/12 01:00:37;;;;;;;3.58;2.88;;;0.70;99.90;;;;;;5081629;28;20201;-67
2022/01/12 01:03:05;;;;;;;5.20;4.22;;;0.70;99.90;;;;;;5083179;28;20247;-69
2022/01/12 01:05:33;;;;;;;3.63;3.33;;;0.70;99.90;;;;;;5085048;28;20247;-67
2022/01/12 01:08:00;;;;;;;5.63;3.22;;;0.60;99.90;;;;;;5075812;28;20749;-67
2022/01/12 01:10:39;;;;;;;4.80;3.33;;;0.60;99.90;;;;;;5081089;28;20208;-67
2022/01/12 01:13:06;;;;;;;5.05;3.10;;;0.50;99.90;;;;;;5081877;28;20224;-67
2022/01/12 01:15:54;;;;;;;4.68;3.28;;;0.40;99.90;;;;;;5070476;28;20225;-67
2022/01/12 01:26:40;;;;;;;4.60;4.20;;;0.20;99.90;;;;;;5088825;28;20219;-67
2022/01/12 01:29:07;;;;;;;3.63;3.22;;;0.10;99.90;;;;;;5085331;28;20514;-67
2022/01/12 01:31:34;;;;;;;3.38;3.00;;;0.10;99.90;;;;;;5084333;28;20254;-66
2022/01/12 01:34:09;;;;;;;3.63;3.33;;;0.10;99.90;;;;;;5082132;28;20214;-66
2022/01/12 01:36:38;;;;;;;4.18;3.75;;;0.10;99.90;;;;;;5081972;28;20654;-66
2022/01/12 01:39:06;;;;;;;3.83;3.50;;;0.00;99.90;;;;;;5075125;28;20209;-67
2022/01/12 01:41:33;;;;;;;3.72;2.95;;;0.00;99.90;;;;;;5074806;28;20259;-67
2022/01/12 01:44:30;;;;;;;7.32;4.38;;;0.00;99.90;;;;;;5085676;28;20208;-67
2022/01/12 01:55:10;;;;;;;4.80;2.80;;;0.20;99.90;;;;;;5090845;28;20364;-68
2022/01/12 01:57:38;;;;;;;4.57;3.97;;;0.20;99.90;;;;;;5094440;28;20237;-66
2022/01/12 02:00:07;;;;;;;3.85;2.92;;;0.30;99.90;;;;;;5085523;28;20608;-66
2022/01/12 02:02:34;;;;;;;5.18;4.22;;;0.30;99.90;;;;;;5081249;28;20205;-66
2022/01/12 02:05:02;;;;;;;2.63;2.42;;;0.40;99.90;;;;;;5088753;28;20226;-66
2022/01/12 02:07:29;;;;;;;6.90;3.90;;;0.40;99.90;;;;;;5096082;28;20220;-68
2022/01/12 02:09:56;;;;;;;7.88;4.88;;;0.40;99.90;;;;;;5071091;28;20432;-66
2022/01/12 02:12:27;;;;;;;6.93;4.05;;;0.40;99.90;;;;;;5088970;28;20288;-67
2022/01/12 02:14:54;;;;;;;4.53;3.58;;;0.40;99.90;;;;;;5091020;28;20442;-67
2022/01/12 02:17:26;;;;;;;4.28;3.58;;;0.50;99.90;;;;;;5087310;28;20271;-67
2022/01/12 02:20:09;;;;;;;4.35;2.83;;;0.50;99.90;;;;;;5083838;28;20200;-66
2022/01/12 02:36:28;;;;;;;3.75;3.15;;;0.70;99.90;;;;;;5077898;28;20327;-67
2022/01/12 02:41:41;;;;;;;5.65;3.53;;;0.70;99.90;;;;;;5082339;28;20303;-67
2022/01/12 02:55:09;;;;;;;3.65;3.20;;;0.80;99.90;;;;;;5080733;28;20234;-68
2022/01/12 02:57:35;;;;;;;4.25;3.28;;;0.70;99.90;;;;;;5107421;28;20247;-68
2022/01/12 03:00:07;;;;;;;3.58;3.25;;;0.70;99.90;;;;;;5091191;28;20234;-66
2022/01/12 03:02:37;;;;;;;3.75;2.38;;;0.70;99.90;;;;;;5103182;28;20244;-65
2022/01/12 03:07:45;;;;;;;5.35;4.68;;;0.70;99.90;;;;;;5082858;28;20264;-67
2022/01/12 03:10:15;;;;;;;6.03;3.90;;;0.70;99.90;;;;;;5080037;28;20546;-67
2022/01/12 03:12:43;;;;;;;4.95;3.65;;;0.70;99.90;;;;;;5077869;28;20327;-68
2022/01/12 03:15:11;;;;;;;3.70;2.50;;;0.70;99.90;;;;;;5082938;28;20230;-66
2022/01/12 03:17:38;;;;;;;4.25;3.85;;;0.70;99.90;;;;;;5084780;28;20196;-66
2022/01/12 03:20:06;;;;;;;3.13;2.83;;;0.70;99.90;;;;;;5072995;28;20201;-67
2022/01/12 03:22:33;;;;;;;3.00;2.42;;;0.70;99.90;;;;;;5074128;28;20225;-69
2022/01/12 03:25:00;;;;;;;3.70;3.03;;;0.70;99.90;;;;;;5074633;28;20617;-68
2022/01/12 03:27:29;;;;;;;3.03;2.60;;;0.70;99.90;;;;;;5095356;28;20220;-68
2022/01/12 03:29:56;;;;;;;2.67;2.45;;;0.70;99.90;;;;;;5077682;28;20205;-67
2022/01/12 03:32:31;;;;;;;4.15;3.72;;;0.60;99.90;;;;;;5086749;28;20204;-68
2022/01/12 03:35:07;;;;;;;3.17;2.95;;;0.60;99.90;;;;;;5088580;28;20213;-67
2022/01/12 03:37:42;;;;;;;6.03;4.40;;;0.50;99.90;;;;;;5069320;28;20266;-66
2022/01/12 03:40:10;;;;;;;4.68;3.88;;;0.50;99.90;;;;;;5080461;28;20606;-67
2022/01/12 03:42:39;;;;;;;2.85;2.03;;;0.40;99.90;;;;;;5078713;28;20289;-67
2022/01/12 03:45:07;;;;;;;3.03;2.40;;;0.40;99.90;;;;;;5084700;28;20208;-66
2022/01/12 03:47:33;;;;;;;4.30;2.97;;;0.30;99.90;;;;;;5089488;28;20277;-69
2022/01/12 03:50:00;;;;;;;5.38;3.47;;;0.30;99.90;;;;;;5073396;28;20279;-66
2022/01/12 03:52:27;;;;;;;3.15;2.95;;;0.30;99.90;;;;;;5085414;28;20209;-66
2022/01/12 03:54:54;;;;;;;3.67;3.40;;;0.30;99.90;;;;;;5080058;28;20229;-67
2022/01/12 03:57:20;;;;;;;2.40;2.17;;;0.20;99.90;;;;;;5079069;28;20983;-67
2022/01/12 03:59:48;;;;;;;3.08;2.88;;;0.30;99.90;;;;;;5072389;28;20243;-66
2022/01/12 04:02:15;;;;;;;3.58;2.58;;;0.30;99.90;;;;;;5087354;28;20209;-67
2022/01/12 04:05:06;;;;;;;2.42;2.10;;;0.30;99.90;;;;;;5078190;28;20199;-66
2022/01/12 04:10:13;;;;;;;2.92;2.63;;;0.40;99.90;;;;;;5084276;28;20263;-68
2022/01/12 04:12:40;;;;;;;5.05;4.55;;;0.50;99.90;;;;;;5069740;28;20589;-68
2022/01/12 04:15:08;;;;;;;3.40;2.83;;;0.50;99.90;;;;;;5086999;28;20357;-66
2022/01/12 04:17:35;;;;;;;3.40;3.10;;;0.60;99.90;;;;;;5069243;28;20664;-66
2022/01/12 04:20:03;;;;;;;3.72;2.92;;;0.60;99.90;;;;;;5090662;28;20200;-67
2022/01/12 04:25:14;;;;;;;5.20;3.55;;;0.70;99.90;;;;;;5085719;28;20251;-68
2022/01/12 04:27:41;;;;;;;5.45;3.63;;;0.70;99.90;;;;;;5091968;28;20205;-67
2022/01/12 04:30:10;;;;;;;5.18;3.38;;;0.70;99.90;;;;;;5104542;28;20548;-67
2022/01/12 04:32:41;;;;;;;2.17;1.98;;;0.80;99.90;;;;;;5099076;28;20193;-67
2022/01/12 04:35:08;;;;;;;3.15;2.90;;;0.80;99.90;;;;;;5098967;28;20287;-66
2022/01/12 04:37:35;;;;;;;2.47;2.28;;;0.80;99.90;;;;;;5113889;28;20304;-68
2022/01/12 04:40:02;;;;;;;6.10;2.90;;;0.90;99.90;;;;;;5089268;28;20237;-67
2022/01/12 04:42:28;;;;;;;2.60;2.45;;;0.90;99.90;;;;;;5083005;28;20659;-67
2022/01/12 04:45:01;;;;;;;3.45;3.13;;;0.90;99.90;;;;;;5081308;28;20189;-66
2022/01/12 04:47:47;;;;;;;3.53;3.22;;;0.90;99.90;;;;;;5119695;22;20753;-63
2022/01/12 04:50:13;;;;;;;4.13;2.90;;;0.90;99.90;;;;;;5081894;28;20890;-63
2022/01/12 04:52:41;;;;;;;5.82;4.03;;;1.00;99.90;;;;;;5081072;28;20196;-62
2022/01/12 04:55:08;;;;;;;3.80;3.45;;;1.00;99.90;;;;;;5082038;28;20675;-63
2022/01/12 04:57:35;;;;;;;4.10;3.70;;;1.00;99.90;;;;;;5090159;28;20251;-63
2022/01/12 05:00:06;;;;;;;4.93;4.22;;;1.00;99.90;;;;;;5070106;28;20903;-63
2022/01/12 05:08:15;;;;;;;3.80;3.50;;;1.00;99.90;;;;;;5075964;28;22064;-63
2022/01/12 05:13:26;;;;;;;3.65;3.03;;;1.00;99.90;;;;;;5039464;28;20207;-63
2022/01/12 05:15:53;;;;;;;4.32;3.80;;;1.10;99.90;;;;;;5071114;28;20237;-64
2022/01/12 05:18:21;;;;;;;4.70;4.13;;;1.10;99.90;;;;;;5079835;28;20692;-63
2022/01/12 05:20:48;;;;;;;3.20;3.00;;;1.10;99.90;;;;;;5061469;28;20631;-63
2022/01/12 05:23:14;;;;;;;5.18;4.53;;;1.10;99.90;;;;;;5068503;28;20621;-64
2022/01/12 05:25:46;;;;;;;3.92;3.58;;;1.20;99.90;;;;;;5065569;28;20251;-63
2022/01/12 05:28:12;;;;;;;4.30;3.30;;;1.20;99.90;;;;;;5072243;28;20210;-64
2022/01/12 05:30:39;;;;;;;3.60;3.30;;;1.30;99.90;;;;;;5069051;28;20206;-63
2022/01/12 05:33:06;;;;;;;6.13;5.45;;;1.30;99.90;;;;;;5074010;28;20730;-63
2022/01/12 05:35:34;;;;;;;5.53;3.78;;;1.30;99.90;;;;;;5068677;28;20283;-63
2022/01/12 05:38:03;;;;;;;5.65;3.45;;;1.30;99.90;;;;;;5059998;28;20206;-63
2022/01/12 05:40:31;;;;;;;8.35;3.40;;;1.30;99.90;;;;;;5059226;28;20206;-64
2022/01/12 05:42:59;;;;;;;3.67;3.40;;;1.40;99.90;;;;;;5066359;28;20201;-64
2022/01/12 05:45:26;;;;;;;3.13;2.90;;;1.40;99.90;;;;;;5069056;28;20258;-63
2022/01/12 05:50:40;;;;;;;4.18;3.83;;;1.40;99.90;;;;;;5069452;28;20618;-63
2022/01/12 05:53:08;;;;;;;5.03;4.43;;;1.40;99.90;;;;;;5068824;28;20205;-63
2022/01/12 05:55:34;;;;;;;4.22;3.35;;;1.50;99.90;;;;;;5070158;28;20775;-63
2022/01/12 05:58:01;;;;;;;4.50;3.90;;;1.40;99.90;;;;;;5068600;28;20198;-63
2022/01/12 06:00:29;;;;;;;5.35;3.40;;;1.40;99.90;;;;;;5064182;28;20800;-63
2022/01/12 06:02:56;;;;;;;4.03;3.67;;;1.40;99.90;;;;;;5062851;28;20193;-63
2022/01/12 06:05:24;;;;;;;4.75;2.85;;;1.40;99.90;;;;;;5065387;28;20663;-63
2022/01/12 06:07:53;;;;;;;3.60;2.88;;;1.30;99.90;;;;;;5072263;28;20225;-63
2022/01/12 06:10:22;;;;;;;4.40;3.95;;;1.30;99.90;;;;;;5067733;28;20209;-63
2022/01/12 06:12:49;;;;;;;6.70;3.10;;;1.30;99.90;;;;;;5066289;28;20198;-65
2022/01/12 06:15:16;;;;;;;2.78;2.58;;;1.30;99.90;;;;;;5066131;28;20226;-64
2022/01/12 06:17:43;;;;;;;4.28;3.30;;;1.30;99.90;;;;;;5069728;28;20630;-65
2022/01/12 06:20:10;;;;;;;3.30;3.05;;;1.30;99.90;;;;;;5069637;28;20622;-64
2022/01/12 06:22:37;;;;;;;3.10;2.42;;;1.30;99.90;;;;;;5067554;28;20197;-64
2022/01/12 06:25:09;;;;;;;3.83;2.58;;;1.30;99.90;;;;;;5067830;28;20247;-64
2022/01/12 06:27:36;;;;;;;3.70;3.00;;;1.30;99.90;;;;;;5067123;28;20221;-64
2022/01/12 06:31:09;;;;;;;4.45;4.07;;;1.30;99.90;;;;;;5068005;28;20229;-64
2022/01/12 06:32:51;;;;;;;3.78;3.50;;;1.30;99.90;;;;;;5065212;28;20208;-64
2022/01/12 06:35:17;;;;;;;4.13;3.72;;;1.30;99.90;;;;;;5071667;28;20228;-64
2022/01/12 06:37:44;;;;;;;8.23;4.50;;;1.30;99.90;;;;;;5069400;28;20217;-64
2022/01/12 06:40:14;;;;;;;6.10;4.25;;;1.30;99.90;;;;;;5068664;28;20228;-64
2022/01/12 06:42:41;;;;;;;2.60;2.40;;;1.30;99.90;;;;;;5068448;28;20197;-64
2022/01/12 06:45:09;;;;;;;3.55;3.28;;;1.40;99.90;;;;;;5069501;28;20271;-64
2022/01/12 06:47:36;;;;;;;3.42;3.20;;;1.40;99.90;;;;;;5069063;28;20238;-64
2022/01/12 06:50:04;;;;;;;4.50;3.00;;;1.40;99.90;;;;;;5068824;28;20263;-64
2022/01/12 06:52:30;;;;;;;3.72;3.17;;;1.40;99.90;;;;;;5069501;28;20205;-64
2022/01/12 06:54:57;;;;;;;2.28;1.95;;;1.30;99.90;;;;;;5063736;28;20267;-64
2022/01/12 06:57:25;;;;;;;4.82;4.15;;;1.30;99.90;;;;;;5074858;28;20282;-65
2022/01/12 06:59:52;;;;;;;8.10;3.78;;;1.20;99.90;;;;;;5068213;28;20677;-65
2022/01/12 07:02:18;;;;;;;3.85;3.53;;;1.10;99.90;;;;;;5074489;28;20262;-64
2022/01/12 07:04:45;;;;;;;5.60;3.72;;;1.10;99.90;;;;;;5086939;28;20201;-65
2022/01/12 07:07:12;;;;;;;5.13;4.28;;;1.00;99.90;;;;;;5069616;28;20653;-65
2022/01/12 07:09:39;;;;;;;2.80;2.50;;;0.90;99.90;;;;;;5079764;28;20701;-65
2022/01/12 07:12:06;;;;;;;4.90;3.42;;;0.90;99.90;;;;;;5071344;28;20262;-64
2022/01/12 07:14:34;;;;;;;3.83;2.70;;;0.90;99.90;;;;;;5069046;28;20213;-64
2022/01/12 07:17:01;;;;;;;2.67;2.38;;;0.90;99.90;;;;;;5073149;28;20293;-64
2022/01/12 07:19:28;;;;;;;3.88;3.58;;;0.90;99.90;;;;;;5077688;28;20209;-64
2022/01/12 07:21:54;;;;;;;4.50;3.78;;;0.90;99.90;;;;;;5069087;28;20737;-66
2022/01/12 07:24:21;;;;;;;3.88;3.53;;;0.90;99.90;;;;;;5068386;28;20205;-66
2022/01/12 07:26:48;;;;;;;2.92;2.72;;;1.00;99.90;;;;;;5068802;28;20300;-66
2022/01/12 07:29:14;;;;;;;4.68;4.25;;;1.10;99.90;;;;;;5070717;28;20204;-64
2022/01/12 07:31:42;;;;;;;4.10;3.70;;;1.20;99.90;;;;;;5080392;28;20667;-62
2022/01/12 07:34:10;;;;;;;4.00;3.10;;;1.20;99.90;;;;;;5060175;28;20255;-62
2022/01/12 07:36:37;;;;;;;7.10;3.35;;;1.20;99.90;;;;;;5068298;28;20090;-63
2022/01/12 07:39:03;;;;;;;4.90;4.50;;;1.30;99.90;;;;;;5077069;28;20204;-62
2022/01/12 07:41:30;;;;;;;3.90;3.50;;;1.30;99.90;;;;;;5072364;28;20235;-64
2022/01/12 07:43:57;;;;;;;3.67;3.35;;;1.30;99.90;;;;;;5083257;28;20211;-62
2022/01/12 07:46:23;;;;;;;3.78;2.67;;;1.40;99.90;;;;;;5074078;28;20742;-62
2022/01/12 07:48:51;;;;;;;5.32;4.93;;;1.40;99.90;;;;;;5077444;28;20577;-62
2022/01/12 07:51:18;;;;;;;3.03;2.72;;;1.50;99.90;;;;;;5075438;28;20725;-64
2022/01/12 07:53:45;;;;;;;4.07;3.60;;;1.50;99.90;;;;;;5078581;28;20209;-64
2022/01/12 07:56:12;;;;;;;5.82;3.35;;;1.50;99.90;;;;;;5072482;28;20279;-61
2022/01/12 07:58:39;;;;;;;4.80;3.58;;;1.50;99.90;;;;;;5075684;28;20219;-64
2022/01/12 08:01:06;;;;;;;3.75;3.45;;;1.60;99.90;;;;;;5075818;28;20231;-62
2022/01/12 08:03:32;;;;;;;4.45;4.05;;;1.60;99.90;;;;;;5093253;28;20219;-62
2022/01/12 08:06:01;;;;;;;4.90;4.22;;;1.60;99.90;;;;;;5075680;28;20217;-62
2022/01/12 08:08:27;;;;;;;4.88;4.47;;;1.70;99.90;;;;;;5074746;28;20630;-64
2022/01/12 08:10:54;;;;;;;6.65;4.18;;;1.70;99.90;;;;;;5078514;28;20209;-62
2022/01/12 08:13:21;;;;;;;8.55;5.00;;;1.80;99.90;;;;;;5071351;28;20708;-62
2022/01/12 08:15:47;;;;;;;3.10;2.67;;;1.80;99.90;;;;;;5085944;28;20229;-62
2022/01/12 08:18:14;;;;;;;8.43;3.72;;;1.80;99.90;;;;;;5071796;28;20258;-64
2022/01/12 08:20:42;;;;;;;7.90;5.70;;;1.80;99.90;;;;;;5076757;28;20729;-62
2022/01/12 08:23:10;;;;;;;3.67;2.72;;;1.90;99.90;;;;;;5072259;28;20280;-64
2022/01/12 08:25:38;;;;;;;5.43;4.97;;;1.90;99.90;;;;;;5083029;28;20197;-62
2022/01/12 08:28:05;;;;;;;4.30;3.47;;;2.00;99.90;;;;;;5071726;28;20201;-62
2022/01/12 08:30:34;;;;;;;5.00;4.47;;;2.00;99.90;;;;;;5071813;28;20247;-64
2022/01/12 08:33:02;;;;;;;3.90;3.15;;;2.00;99.90;;;;;;5071705;28;20587;-63
2022/01/12 08:35:29;;;;;;;5.85;4.10;;;2.00;99.90;;;;;;5078222;28;20239;-64
2022/01/12 08:37:57;;;;;;;5.72;4.18;;;2.10;99.90;;;;;;5072793;28;20656;-63
2022/01/12 08:40:26;;;;;;;6.10;5.53;;;2.10;99.90;;;;;;5071253;28;20201;-63
2022/01/12 08:42:53;;;;;;;5.25;4.75;;;2.10;99.90;;;;;;5076994;28;20205;-64
2022/01/12 08:45:20;;;;;;;6.05;4.65;;;2.10;99.90;;;;;;5069012;28;20209;-62
2022/01/12 08:47:48;;;;;;;3.80;3.50;;;2.20;99.90;;;;;;5085041;28;20232;-64
2022/01/12 08:50:14;;;;;;;4.75;4.32;;;2.20;99.90;;;;;;5078863;28;20209;-64
2022/01/12 08:52:45;;;;;;;3.80;3.45;;;2.20;99.90;;;;;;5074158;28;20262;-62
2022/01/12 08:55:12;;;;;;;5.63;4.95;;;2.30;99.90;;;;;;5084369;28;20202;-62
2022/01/12 08:57:40;;;;;;;4.10;3.30;;;2.30;99.90;;;;;;5070893;28;20627;-64
2022/01/12 09:00:09;;;;;;;5.10;4.57;;;2.30;99.90;;;;;;5071318;28;20259;-64
2022/01/12 09:02:35;;;;;;;10.85;4.93;;;2.30;99.90;;;;;;5086560;28;20200;-62
2022/01/12 09:05:02;;;;;;;5.05;4.35;;;2.30;99.90;;;;;;5072023;28;20201;-64
2022/01/12 09:07:29;;;;;;;2.78;2.58;;;2.30;99.90;;;;;;5070691;28;20228;-64
2022/01/12 09:09:55;;;;;;;4.32;4.00;;;2.30;99.90;;;;;;5071168;28;20243;-63
2022/01/12 09:12:22;;;;;;;6.43;5.90;;;2.40;99.90;;;;;;5071042;28;20206;-64
2022/01/12 09:14:51;;;;;;;4.32;3.92;;;2.50;99.90;;;;;;5070950;28;20201;-62
2022/01/12 09:17:20;;;;;;;5.00;4.03;;;2.50;99.90;;;;;;5071404;28;20260;-62
2022/01/12 09:19:47;;;;;;;5.47;4.85;;;2.60;99.90;;;;;;5070938;28;20208;-64
2022/01/12 09:22:14;;;;;;;5.20;4.45;;;2.70;99.90;;;;;;5070659;28;20209;-63
2022/01/12 09:24:42;;;;;;;4.78;4.28;;;2.80;99.90;;;;;;5071246;28;20209;-64
2022/01/12 09:27:09;;;;;;;6.32;3.42;;;2.80;99.90;;;;;;5070982;28;20225;-64
2022/01/12 09:29:35;;;;;;;4.30;3.53;;;2.90;99.90;;;;;;5081538;28;20257;-63
2022/01/12 09:32:04;;;;;;;5.32;4.13;;;3.00;99.90;;;;;;5068173;28;20267;-64
2022/01/12 09:34:31;;;;;;;6.40;3.58;;;3.10;99.90;;;;;;5070915;28;20261;-64
2022/01/12 09:36:57;;;;;;;4.30;3.90;;;3.10;99.90;;;;;;5070539;28;20592;-64
2022/01/12 09:39:24;;;;;;;5.05;4.35;;;3.20;99.90;;;;;;5070731;28;20735;-63
2022/01/12 09:41:51;;;;;;;5.65;4.22;;;3.30;99.90;;;;;;5070374;28;20625;-64
2022/01/12 09:44:18;;;;;;;5.20;4.40;;;3.40;99.90;;;;;;5077506;28;20247;-62
2022/01/12 09:46:45;;;;;;;6.15;4.05;;;3.40;99.90;;;;;;5070501;28;20597;-62
2022/01/12 09:49:13;;;;;;;4.00;3.60;;;3.50;99.90;;;;;;5070482;28;20683;-64
2022/01/12 09:51:40;;;;;;;5.47;4.53;;;3.50;99.90;;;;;;5070775;28;20205;-62
2022/01/12 09:54:06;;;;;;;4.40;4.00;;;3.50;99.90;;;;;;5070733;28;20236;-62
2022/01/12 09:56:33;;;;;;;6.80;5.38;;;3.50;99.90;;;;;;5070386;28;20225;-64
2022/01/12 09:59:01;;;;;;;5.55;4.70;;;3.50;99.90;;;;;;5072316;28;20671;-64
2022/01/12 10:01:29;;;;;;;5.30;3.28;;;3.50;99.90;;;;;;5069035;28;20197;-63
2022/01/12 10:04:10;;;;;;;6.10;4.80;;;3.50;99.90;;;;;;5083921;28;20205;-64
2022/01/12 10:06:40;;;;;;;4.28;3.90;;;3.40;99.90;;;;;;5067731;28;20243;-64
2022/01/12 10:09:07;;;;;;;5.47;4.45;;;3.40;99.90;;;;;;5070110;28;20232;-63
2022/01/12 10:11:34;;;;;;;5.75;4.18;;;3.40;99.90;;;;;;5075634;28;20293;-64
2022/01/12 10:14:02;;;;;;;4.43;4.03;;;3.40;99.90;;;;;;5072183;28;20197;-62
2022/01/12 10:16:29;;;;;;;4.03;3.67;;;3.40;99.90;;;;;;5072479;28;20225;-62
2022/01/12 10:18:59;;;;;;;5.25;4.75;;;3.40;99.90;;;;;;5068693;28;20672;-64
2022/01/12 10:21:27;;;;;;;5.78;4.97;;;3.40;99.90;;;;;;5070157;28;20262;-64
2022/01/12 10:24:04;;;;;;;5.95;3.70;;;3.40;99.90;;;;;;5070140;28;20212;-62
2022/01/12 10:26:34;;;;;;;6.88;4.88;;;3.40;99.90;;;;;;5082195;28;20579;-63
2022/01/12 10:29:10;;;;;;;4.07;3.67;;;3.40;99.90;;;;;;5076379;28;20215;-63
2022/01/12 10:31:44;;;;;;;5.25;4.50;;;3.40;99.90;;;;;;5084812;28;20615;-63
2022/01/12 10:34:11;;;;;;;4.63;3.75;;;3.40;99.90;;;;;;5081776;28;20234;-64
2022/01/12 10:36:38;;;;;;;6.88;5.78;;;3.40;99.90;;;;;;5069302;28;20217;-64
2022/01/12 10:39:11;;;;;;;5.07;4.13;;;3.50;99.90;;;;;;5069690;28;20216;-62
2022/01/12 10:41:41;;;;;;;8.18;5.47;;;3.50;99.90;;;;;;5069105;28;20214;-62
2022/01/12 10:44:08;;;;;;;5.90;5.07;;;3.50;99.90;;;;;;5074416;28;20745;-63
2022/01/12 10:46:34;;;;;;;5.78;5.22;;;3.60;99.90;;;;;;5069007;28;20233;-63
2022/01/12 10:49:02;;;;;;;4.47;3.53;;;3.70;99.90;;;;;;5069159;28;20262;-63
2022/01/12 10:51:30;;;;;;;4.13;3.55;;;3.70;99.90;;;;;;5077850;28;20713;-63
2022/01/12 10:54:03;;;;;;;4.13;3.72;;;3.80;99.90;;;;;;5068938;28;20255;-63
2022/01/12 10:56:32;;;;;;;5.05;4.65;;;3.90;99.90;;;;;;5078534;28;20499;-63
2022/01/12 10:58:59;;;;;;;4.55;4.10;;;3.90;99.90;;;;;;5068210;28;20202;-63
2022/01/12 11:01:28;;;;;;;5.40;4.90;;;3.90;99.90;;;;;;5078653;28;20284;-63
2022/01/12 11:03:55;;;;;;;7.97;4.43;;;4.00;99.90;;;;;;5069313;28;20442;-62
2022/01/12 11:06:21;;;;;;;6.03;4.93;;;4.00;99.90;;;;;;5068878;28;20248;-62
2022/01/12 11:08:50;;;;;;;9.23;5.30;;;4.10;99.90;;;;;;5070133;28;20193;-62
2022/01/12 11:11:17;;;;;;;7.35;5.30;;;4.10;99.90;;;;;;5068197;28;20201;-64
2022/01/12 11:13:47;;;;;;;6.20;4.07;;;4.10;99.90;;;;;;5078063;28;20253;-63
2022/01/12 11:16:14;;;;;;;6.57;5.10;;;4.10;99.90;;;;;;5055881;28;20226;-64
2022/01/12 11:18:42;;;;;;;6.47;4.65;;;4.10;99.90;;;;;;5069070;28;20205;-64
2022/01/12 11:21:23;;;;;;;10.43;4.55;;;4.10;99.90;;;;;;5074320;28;20206;-63
2022/01/12 11:23:51;;;;;;;5.22;4.05;;;4.20;99.90;;;;;;5069762;28;20228;-64
2022/01/12 11:26:20;;;;;;;5.07;4.07;;;4.20;99.90;;;;;;5068962;28;20271;-64
2022/01/12 11:28:52;;;;;;;7.18;4.85;;;4.30;99.90;;;;;;5069166;28;20197;-67
2022/01/12 11:31:24;;;;;;;7.43;4.90;;;4.30;99.90;;;;;;5080671;28;20847;-66
2022/01/12 11:33:51;;;;;;;6.88;5.50;;;4.40;99.90;;;;;;5069128;28;21072;-65
2022/01/12 11:36:20;;;;;;;8.15;4.85;;;4.40;99.90;;;;;;5068813;28;20225;-63
2022/01/12 11:38:51;;;;;;;8.63;5.03;;;4.40;99.90;;;;;;5068108;28;20208;-64
2022/01/12 11:41:26;;;;;;;8.50;5.25;;;4.40;99.90;;;;;;5068607;28;20205;-63
2022/01/12 11:43:58;;;;;;;9.02;5.10;;;4.30;99.90;;;;;;5064969;28;20211;-64
2022/01/12 11:46:27;;;;;;;10.02;5.25;;;4.30;99.90;;;;;;5068544;28;20229;-63
2022/01/12 11:48:56;;;;;;;6.72;5.45;;;4.30;99.90;;;;;;5068696;28;20200;-64
2022/01/12 11:51:34;;;;;;;9.93;5.50;;;4.30;99.90;;;;;;5082064;28;20623;-64
2022/01/12 11:54:07;;;;;;;11.02;5.95;;;4.20;99.90;;;;;;5062492;28;20211;-64
2022/01/12 11:56:34;;;;;;;12.52;6.53;;;4.20;99.90;;;;;;5076610;28;20600;-62
2022/01/12 11:59:09;;;;;;;9.75;6.95;;;4.20;99.90;;;;;;5067773;28;20268;-64
2022/01/12 12:01:43;;;;;;;6.30;4.50;;;4.30;99.90;;;;;;5059181;28;20651;-63
2022/01/12 12:04:20;;;;;;;8.10;6.15;;;4.30;99.90;;;;;;5066386;28;20208;-65
2022/01/12 12:06:47;;;;;;;5.50;4.18;;;4.30;99.90;;;;;;5068348;28;20274;-64
2022/01/12 12:09:18;;;;;;;6.68;5.90;;;4.30;99.90;;;;;;5068412;28;20262;-64
2022/01/12 12:11:51;;;;;;;12.45;6.93;;;4.40;99.90;;;;;;5068603;28;20274;-64
2022/01/12 12:14:20;;;;;;;10.63;8.20;;;4.50;99.90;;;;;;5068289;28;20290;-63
2022/01/12 12:16:47;;;;;;;12.88;5.68;;;4.50;99.90;;;;;;5068387;28;20341;-62
2022/01/12 12:19:14;;;;;;;9.77;6.97;;;4.60;99.90;;;;;;5067661;28;20206;-63
2022/01/12 12:21:47;;;;;;;12.60;6.80;;;4.60;99.90;;;;;;5068460;28;20201;-64
2022/01/12 12:24:15;;;;;;;8.60;7.65;;;4.50;99.90;;;;;;5054833;28;20212;-63
2022/01/12 12:26:48;;;;;;;7.70;5.03;;;4.40;99.90;;;;;;5075970;28;20244;-65
2022/01/12 12:29:16;;;;;;;13.95;7.70;;;4.40;99.90;;;;;;5067789;28;20286;-64
2022/01/12 12:31:47;;;;;;;15.85;7.70;;;4.40;99.90;;;;;;5073367;28;20205;-62
2022/01/12 12:34:14;;;;;;;11.32;6.60;;;4.50;99.90;;;;;;5066358;28;20209;-63
2022/01/12 12:36:41;;;;;;;14.65;7.90;;;4.50;99.90;;;;;;5067735;28;20229;-68
2022/01/12 12:39:11;;;;;;;9.55;7.25;;;4.50;99.90;;;;;;5069075;28;20209;-64
2022/01/12 12:41:39;;;;;;;8.25;6.45;;;4.60;99.90;;;;;;5068078;28;20213;-63
2022/01/12 12:44:07;;;;;;;10.77;8.75;;;4.50;99.90;;;;;;5071131;28;20286;-64
2022/01/12 12:46:34;;;;;;;7.75;7.00;;;4.50;99.90;;;;;;5085099;28;20229;-63
2022/01/12 12:49:09;;;;;;;14.25;7.63;;;4.50;99.90;;;;;;5070339;28;20205;-63
2022/01/12 12:51:36;;;;;;;11.85;6.38;;;4.50;99.90;;;;;;5076355;28;20255;-64
2022/01/12 12:54:03;;;;;;;14.05;9.32;;;4.40;99.90;;;;;;5075807;28;20230;-64
2022/01/12 12:56:38;;;;;;;11.25;7.28;;;4.50;99.90;;;;;;5068732;28;20315;-64
2022/01/12 12:59:05;;;;;;;13.13;7.78;;;4.40;99.90;;;;;;5069052;28;20595;-63
2022/01/12 13:01:32;;;;;;;8.60;7.05;;;4.40;99.90;;;;;;5075049;28;20555;-63
2022/01/12 13:04:01;;;;;;;15.52;8.27;;;4.40;99.90;;;;;;5091802;28;20208;-64
2022/01/12 13:06:30;;;;;;;13.05;6.43;;;4.40;99.90;;;;;;5079545;28;20286;-63
2022/01/12 13:08:59;;;;;;;10.27;6.65;;;4.40;99.90;;;;;;5070545;28;20263;-63
2022/01/12 13:11:29;;;;;;;12.23;7.85;;;4.30;99.90;;;;;;5070178;28;20266;-64
2022/01/12 13:13:57;;;;;;;13.52;7.05;;;4.20;99.90;;;;;;5082359;28;20628;-63
2022/01/12 13:16:26;;;;;;;14.45;8.00;;;4.20;99.90;;;;;;5066857;28;20283;-65
2022/01/12 13:19:02;;;;;;;12.45;7.70;;;4.20;99.90;;;;;;5070370;28;20220;-63
2022/01/12 13:21:30;;;;;;;13.02;10.25;;;4.10;99.90;;;;;;5065432;28;20629;-65
2022/01/12 13:23:59;;;;;;;10.63;7.30;;;4.10;99.90;;;;;;5067783;28;20197;-65
2022/01/12 13:26:31;;;;;;;16.60;8.32;;;4.10;99.90;;;;;;5070091;28;20221;-64
2022/01/12 13:28:58;;;;;;;16.60;8.23;;;4.10;99.90;;;;;;5065995;28;20202;-65
2022/01/12 13:31:25;;;;;;;8.55;6.35;;;4.10;99.90;;;;;;5065955;28;20202;-63
2022/01/12 13:33:53;;;;;;;10.25;8.55;;;4.10;99.90;;;;;;5074797;28;20196;-65
2022/01/12 13:36:22;;;;;;;8.38;7.18;;;4.10;99.90;;;;;;5070712;28;20233;-64
2022/01/12 13:38:56;;;;;;;19.13;9.98;;;4.10;99.90;;;;;;5069977;28;20263;-64
2022/01/12 13:41:25;;;;;;;15.40;8.57;;;4.10;99.90;;;;;;5068275;28;20247;-63
2022/01/12 13:43:57;;;;;;;12.15;8.70;;;4.10;99.90;;;;;;5078396;28;20300;-62
2022/01/12 13:46:31;;;;;;;14.13;8.73;;;4.20;99.90;;;;;;5079147;28;20251;-63
2022/01/12 13:49:21;;;;;;;18.83;10.40;;;4.10;99.90;;;;;;5069812;28;20214;-65
2022/01/12 13:51:57;;;;;;;20.83;8.52;;;4.10;99.90;;;;;;5068389;28;20251;-64
2022/01/12 13:54:30;;;;;;;11.88;7.65;;;4.00;99.90;;;;;;5063948;28;20700;-63
2022/01/12 13:56:58;;;;;;;16.65;10.23;;;4.00;99.90;;;;;;5068376;28;20263;-69
2022/01/12 13:59:28;;;;;;;12.20;10.13;;;4.10;99.90;;;;;;5067888;28;20259;-65
2022/01/12 14:01:56;;;;;;;14.65;7.90;;;4.10;99.90;;;;;;5070159;28;20201;-63
2022/01/12 14:04:30;;;;;;;19.83;9.52;;;4.10;99.90;;;;;;5062391;28;20198;-63
2022/01/12 14:07:01;;;;;;;11.85;7.80;;;4.10;99.90;;;;;;5059396;28;20220;-64
2022/01/12 14:09:33;;;;;;;16.33;7.78;;;4.00;99.90;;;;;;5061195;28;20201;-63
2022/01/12 14:12:10;;;;;;;21.00;9.02;;;4.00;99.90;;;;;;5069377;28;20194;-64